Time;durP1;ratioP1;P1;durP2;ratioP2;P2;SDS_P1;SDS_P2;PMS_P1;PMS_P2;Temp;Humidity;BMP_temperature;BMP_pressure;BME280_temperature;BME280_humidity;BME280_pressure;Samples;Min_cycle;Max_cycle;Signal;HPM_P1;HPM_P2
2023/07/12 03:11:46;;;;;;;8.10;7.90;;;18.70;99.90;;;;;;4938880;29;20242;-76
2023/07/12 03:14:16;;;;;;;8.10;7.90;;;18.70;99.90;;;;;;4938400;29;20219;-77
2023/07/12 03:16:44;;;;;;;8.30;8.10;;;18.70;99.90;;;;;;4938126;29;20302;-77
2023/07/12 03:19:12;;;;;;;8.23;8.02;;;18.70;99.90;;;;;;4938415;28;20250;-76
2023/07/12 03:21:40;;;;;;;8.20;8.00;;;18.70;99.90;;;;;;4939309;29;20242;-77
2023/07/12 03:24:08;;;;;;;8.25;8.05;;;18.70;99.90;;;;;;4941151;29;20237;-76
2023/07/12 03:26:36;;;;;;;8.60;8.40;;;18.70;99.90;;;;;;4941440;28;20238;-77
2023/07/12 03:29:06;;;;;;;8.40;8.20;;;18.70;99.90;;;;;;4941023;28;20242;-77
2023/07/12 03:31:33;;;;;;;8.25;8.05;;;18.70;99.90;;;;;;4941312;29;20239;-77
2023/07/12 03:34:01;;;;;;;8.20;8.00;;;18.70;99.90;;;;;;4941202;29;20261;-76
2023/07/12 03:36:31;;;;;;;8.48;8.27;;;18.70;99.90;;;;;;4942102;28;20237;-77
2023/07/12 03:39:00;;;;;;;8.50;8.30;;;18.70;99.90;;;;;;4943479;29;20245;-78
2023/07/12 03:41:28;;;;;;;8.30;8.10;;;18.70;99.90;;;;;;4941997;29;20235;-77
2023/07/12 03:43:56;;;;;;;8.50;8.30;;;18.70;99.90;;;;;;4941077;28;20227;-77
2023/07/12 03:46:25;;;;;;;8.45;8.25;;;18.70;99.90;;;;;;4941333;29;20227;-77
2023/07/12 03:48:52;;;;;;;8.30;8.10;;;18.70;99.90;;;;;;4940926;28;20235;-76
2023/07/12 03:51:22;;;;;;;8.27;8.07;;;18.80;99.90;;;;;;4941427;29;20231;-78
2023/07/12 03:53:50;;;;;;;8.50;8.30;;;18.80;99.90;;;;;;4940887;28;20322;-78
2023/07/12 03:56:17;;;;;;;8.70;8.50;;;18.80;99.90;;;;;;4941589;29;20257;-77
2023/07/12 03:58:45;;;;;;;8.82;8.60;;;18.80;99.90;;;;;;4941449;29;20242;-77
2023/07/12 04:01:15;;;;;;;8.57;8.38;;;18.80;99.90;;;;;;4941460;29;20250;-76
2023/07/12 04:03:44;;;;;;;8.77;8.57;;;18.80;99.90;;;;;;4941080;29;20235;-78
2023/07/12 04:06:12;;;;;;;8.70;8.50;;;18.80;99.90;;;;;;4941580;29;20227;-77
2023/07/12 04:08:40;;;;;;;8.40;8.20;;;18.90;99.90;;;;;;4943223;29;20708;-77
2023/07/12 04:11:09;;;;;;;9.00;8.70;;;18.90;99.90;;;;;;4947336;29;20248;-76
2023/07/12 04:13:36;;;;;;;8.65;8.45;;;18.90;99.90;;;;;;4945462;28;20234;-77
2023/07/12 04:16:04;;;;;;;8.50;8.30;;;19.00;99.90;;;;;;4944104;29;20231;-78
2023/07/12 04:18:32;;;;;;;8.60;8.40;;;19.00;99.90;;;;;;4943343;29;20249;-77
2023/07/12 04:21:06;;;;;;;8.52;8.32;;;19.10;99.90;;;;;;4941735;29;20269;-76
2023/07/12 04:23:33;;;;;;;8.65;8.45;;;19.20;99.90;;;;;;4940885;28;20223;-77
2023/07/12 04:26:03;;;;;;;8.57;8.38;;;19.20;99.90;;;;;;4940439;29;20244;-77
2023/07/12 04:28:32;;;;;;;8.98;8.68;;;19.30;99.90;;;;;;4940342;29;20249;-76
2023/07/12 04:31:04;;;;;;;8.55;8.35;;;19.40;99.90;;;;;;4941327;29;20290;-77
2023/07/12 04:33:32;;;;;;;8.50;8.30;;;19.40;99.90;;;;;;4940404;28;20326;-77
2023/07/12 04:35:59;;;;;;;8.23;8.02;;;19.50;99.90;;;;;;4941608;29;20253;-78
2023/07/12 04:38:29;;;;;;;8.40;8.20;;;19.50;99.90;;;;;;4941176;28;20250;-77
2023/07/12 04:40:58;;;;;;;8.20;8.00;;;19.50;99.90;;;;;;4940784;29;20245;-78
2023/07/12 04:43:26;;;;;;;8.50;8.30;;;19.60;99.90;;;;;;4940096;28;20227;-77
2023/07/12 04:45:53;;;;;;;8.45;8.25;;;19.60;99.90;;;;;;4939846;28;20352;-77
2023/07/12 04:48:21;;;;;;;8.70;8.50;;;19.60;99.90;;;;;;4940022;28;20242;-79
2023/07/12 04:50:52;;;;;;;8.50;8.30;;;19.60;99.90;;;;;;4940489;28;20289;-78
2023/07/12 04:53:19;;;;;;;8.32;8.13;;;19.60;99.90;;;;;;4940265;29;20223;-75
2023/07/12 04:55:52;;;;;;;8.35;8.15;;;19.60;99.90;;;;;;4941824;28;20234;-77
2023/07/12 04:58:20;;;;;;;8.45;8.25;;;19.60;99.90;;;;;;4940923;28;20247;-77
2023/07/12 05:00:48;;;;;;;8.35;8.15;;;19.70;99.90;;;;;;4940712;29;20329;-78
2023/07/12 05:03:16;;;;;;;8.40;8.20;;;19.70;99.90;;;;;;4941461;29;20242;-79
2023/07/12 05:05:45;;;;;;;8.43;8.23;;;19.80;99.90;;;;;;4940854;29;20235;-78
2023/07/12 05:08:16;;;;;;;8.43;8.23;;;19.80;99.90;;;;;;4943539;29;20239;-77
2023/07/12 05:10:43;;;;;;;8.40;8.20;;;19.90;99.90;;;;;;4940261;28;20273;-76
2023/07/12 05:13:14;;;;;;;8.30;8.10;;;19.90;99.90;;;;;;4940605;29;20242;-77
2023/07/12 05:15:43;;;;;;;8.70;8.50;;;20.00;99.90;;;;;;4957934;28;20233;-78
2023/07/12 05:18:12;;;;;;;8.52;8.32;;;20.00;99.90;;;;;;4959798;28;20329;-78
2023/07/12 05:20:42;;;;;;;8.50;8.30;;;20.10;99.90;;;;;;4960129;28;20244;-78
2023/07/12 05:23:12;;;;;;;8.50;8.30;;;20.10;99.90;;;;;;4959976;28;20230;-78
2023/07/12 05:25:40;;;;;;;9.00;8.70;;;20.10;99.90;;;;;;4960059;28;20330;-78
2023/07/12 05:28:10;;;;;;;9.10;8.80;;;20.20;99.90;;;;;;4959668;28;20241;-78
2023/07/12 05:30:41;;;;;;;9.30;9.00;;;20.20;99.90;;;;;;4959882;28;20249;-77
2023/07/12 05:33:09;;;;;;;9.07;8.77;;;20.20;99.90;;;;;;4930028;29;20286;-77
2023/07/12 05:35:37;;;;;;;9.10;8.80;;;20.20;99.90;;;;;;4941724;29;20231;-79
2023/07/12 05:38:06;;;;;;;8.95;8.68;;;20.20;99.90;;;;;;4940998;28;20330;-78
2023/07/12 05:40:35;;;;;;;9.10;8.80;;;20.30;99.90;;;;;;4941138;28;20241;-78
2023/07/12 05:43:04;;;;;;;9.18;8.88;;;20.40;99.90;;;;;;4940042;29;20277;-78
2023/07/12 05:45:38;;;;;;;9.75;9.45;;;20.50;99.90;;;;;;4940043;29;20299;-78
2023/07/12 05:48:09;;;;;;;9.57;9.27;;;20.50;99.90;;;;;;4939533;29;20253;-78
2023/07/12 05:50:37;;;;;;;9.85;9.55;;;20.70;99.90;;;;;;4921651;29;20241;-78
2023/07/12 05:53:05;;;;;;;9.52;9.23;;;20.80;99.90;;;;;;4921434;29;20242;-78
2023/07/12 05:55:35;;;;;;;9.80;9.50;;;20.90;99.90;;;;;;4921318;29;20243;-78
2023/07/12 05:58:05;;;;;;;10.02;9.73;;;21.00;99.90;;;;;;4927948;29;20295;-78
2023/07/12 06:00:33;;;;;;;10.30;10.00;;;21.10;99.90;;;;;;4939793;28;20291;-78
2023/07/12 06:03:01;;;;;;;9.73;9.43;;;21.20;99.90;;;;;;4940091;28;20239;-77
2023/07/12 06:05:30;;;;;;;10.70;10.40;;;21.30;99.90;;;;;;4939197;29;20581;-76
2023/07/12 06:07:57;;;;;;;10.48;10.18;;;21.50;99.90;;;;;;4938292;28;20239;-77
2023/07/12 06:10:25;;;;;;;10.30;10.00;;;21.70;99.90;;;;;;4938106;29;20245;-77
2023/07/12 06:12:52;;;;;;;10.40;10.10;;;21.80;99.90;;;;;;4938214;29;20219;-77
2023/07/12 06:15:20;;;;;;;10.38;10.07;;;21.90;99.90;;;;;;4937880;29;20259;-76
2023/07/12 06:17:48;;;;;;;10.40;10.10;;;21.90;99.90;;;;;;4936257;29;20785;-76
2023/07/12 06:20:15;;;;;;;10.40;10.10;;;21.80;99.90;;;;;;4938751;29;20231;-78
2023/07/12 06:22:45;;;;;;;10.05;9.75;;;21.80;99.90;;;;;;4938583;29;20239;-77
2023/07/12 06:25:12;;;;;;;10.60;10.30;;;21.80;99.90;;;;;;4937688;29;20239;-78
2023/07/12 06:27:40;;;;;;;10.52;10.23;;;21.80;99.90;;;;;;4938223;29;20231;-76
2023/07/12 06:30:09;;;;;;;10.80;10.50;;;21.80;99.90;;;;;;4939380;29;20273;-76
2023/07/12 06:32:38;;;;;;;10.82;10.52;;;21.80;99.90;;;;;;4940140;28;20227;-77
2023/07/12 06:35:07;;;;;;;11.00;10.70;;;21.90;99.90;;;;;;4939761;29;20275;-76
2023/07/12 06:37:34;;;;;;;11.10;10.80;;;21.90;99.90;;;;;;4940180;28;20333;-77
2023/07/12 06:40:05;;;;;;;11.13;10.82;;;22.00;99.90;;;;;;4939587;29;20712;-76
2023/07/12 06:42:32;;;;;;;11.45;11.05;;;22.10;99.90;;;;;;4939841;29;20298;-77
2023/07/12 06:45:00;;;;;;;11.63;11.23;;;22.20;99.90;;;;;;4942610;28;20240;-77
2023/07/12 06:47:28;;;;;;;11.80;11.40;;;22.40;99.90;;;;;;4958487;28;20245;-78
2023/07/12 06:49:57;;;;;;;11.57;11.18;;;22.50;99.90;;;;;;4957947;28;20269;-76
2023/07/12 06:52:24;;;;;;;11.60;11.20;;;22.60;99.90;;;;;;4957917;28;20302;-77
2023/07/12 06:54:52;;;;;;;11.55;11.15;;;22.70;99.90;;;;;;4957206;28;20242;-77
2023/07/12 06:57:21;;;;;;;11.60;11.20;;;22.90;99.90;;;;;;4959458;28;20257;-76
2023/07/12 06:59:48;;;;;;;11.75;11.35;;;23.00;99.90;;;;;;4944348;28;20219;-77
2023/07/12 07:02:19;;;;;;;11.48;11.07;;;23.20;99.90;;;;;;4942356;29;20223;-77
2023/07/12 07:04:46;;;;;;;11.57;11.18;;;23.30;99.90;;;;;;4945780;29;20241;-77
2023/07/12 07:07:14;;;;;;;11.55;11.15;;;23.40;99.90;;;;;;4946808;29;20239;-77
2023/07/12 07:09:41;;;;;;;11.77;11.38;;;23.50;99.90;;;;;;4945157;28;20218;-77
2023/07/12 07:12:09;;;;;;;11.85;11.45;;;23.50;99.90;;;;;;4943450;29;20238;-76
2023/07/12 07:14:41;;;;;;;11.57;11.18;;;23.70;99.90;;;;;;4942298;29;20253;-77
2023/07/12 07:17:10;;;;;;;11.43;11.02;;;23.70;99.90;;;;;;4943173;29;20249;-76
2023/07/12 07:19:42;;;;;;;11.80;11.40;;;23.70;99.90;;;;;;4942730;28;20333;-80
2023/07/12 07:22:10;;;;;;;11.80;11.40;;;23.80;99.90;;;;;;4943412;29;20230;-77
2023/07/12 07:24:38;;;;;;;12.02;11.63;;;24.00;99.90;;;;;;4941643;29;21056;-78
2023/07/12 07:27:09;;;;;;;11.55;11.15;;;24.20;99.90;;;;;;4942018;28;20282;-78
2023/07/12 07:29:40;;;;;;;11.90;11.50;;;24.40;99.90;;;;;;4942360;29;20266;-77
2023/07/12 07:32:09;;;;;;;11.90;11.50;;;24.50;99.90;;;;;;4941612;29;20233;-77
2023/07/12 07:34:36;;;;;;;11.98;11.57;;;24.70;99.90;;;;;;4941781;28;20294;-79
2023/07/12 07:37:05;;;;;;;11.75;11.35;;;24.80;99.90;;;;;;4938661;29;20243;-78
2023/07/12 07:39:33;;;;;;;11.70;11.30;;;24.80;99.90;;;;;;4940829;29;20249;-78
2023/07/12 07:42:09;;;;;;;11.90;11.50;;;25.00;99.90;;;;;;4946156;28;20233;-80
2023/07/12 07:44:39;;;;;;;12.20;11.80;;;25.00;99.90;;;;;;4944065;28;20238;-80
2023/07/12 07:47:08;;;;;;;12.00;11.60;;;25.10;99.90;;;;;;4945781;28;20266;-80
2023/07/12 07:49:36;;;;;;;12.00;11.60;;;25.20;99.90;;;;;;4946153;29;20250;-79
2023/07/12 07:52:05;;;;;;;11.88;11.48;;;25.30;99.90;;;;;;4945477;28;20249;-79
2023/07/12 07:54:34;;;;;;;11.80;11.40;;;25.40;99.90;;;;;;4945767;28;20249;-78
2023/07/12 07:57:03;;;;;;;11.60;11.20;;;25.40;99.90;;;;;;4947124;28;20230;-80
2023/07/12 07:59:33;;;;;;;12.00;11.60;;;25.50;99.90;;;;;;4961262;28;20238;-80
2023/07/12 08:02:05;;;;;;;11.73;11.32;;;25.50;99.90;;;;;;4965836;28;20258;-80
2023/07/12 08:04:33;;;;;;;11.40;11.10;;;25.60;99.90;;;;;;4966613;28;20245;-79
2023/07/12 08:07:02;;;;;;;11.27;10.98;;;25.60;99.90;;;;;;4962806;28;20277;-80
2023/07/12 08:09:30;;;;;;;11.40;11.07;;;25.60;99.90;;;;;;4962125;28;20226;-79
2023/07/12 08:12:00;;;;;;;11.30;11.00;;;25.80;99.90;;;;;;4963912;28;20223;-79
2023/07/12 08:14:30;;;;;;;11.38;11.07;;;25.90;99.90;;;;;;4962131;28;20346;-78
2023/07/12 08:16:59;;;;;;;11.35;11.05;;;26.00;99.90;;;;;;4961819;28;20308;-79
2023/07/12 08:19:37;;;;;;;11.65;11.25;;;25.90;99.90;;;;;;4962485;28;20333;-78
2023/07/12 08:22:05;;;;;;;11.30;11.00;;;26.00;99.90;;;;;;4962224;28;20242;-78
2023/07/12 08:27:17;;;;;;;11.65;11.25;;;25.80;99.90;;;;;;4967402;28;20241;-81
2023/07/12 08:29:46;;;;;;;11.90;11.50;;;25.70;99.90;;;;;;4968992;28;20238;-81
2023/07/12 08:32:15;;;;;;;11.60;11.20;;;25.70;99.90;;;;;;4967988;28;20234;-82
2023/07/12 08:34:55;;;;;;;11.40;11.00;;;25.80;99.90;;;;;;4968579;28;20242;-85
2023/07/12 08:37:23;;;;;;;11.60;11.20;;;25.60;99.90;;;;;;4967600;28;20298;-84
2023/07/12 08:39:53;;;;;;;11.60;11.20;;;25.60;99.90;;;;;;4968387;28;20230;-82
2023/07/12 08:43:28;;;;;;;11.02;10.73;;;25.70;99.90;;;;;;4967871;28;20230;-83
2023/07/12 09:23:42;;;;;;;11.60;11.20;;;26.00;99.90;;;;;;4808571;29;20231;-84
2023/07/12 09:29:24;;;;;;;11.50;11.20;;;26.90;99.90;;;;;;4941227;29;20273;-81
2023/07/12 09:31:59;;;;;;;11.40;11.10;;;27.10;99.90;;;;;;4953820;28;20257;-81
2023/07/12 09:34:39;;;;;;;11.85;11.45;;;27.20;99.90;;;;;;4955825;29;20226;-81
2023/07/12 09:40:06;;;;;;;11.32;11.02;;;26.80;99.90;;;;;;4948359;28;20281;-81
2023/07/12 09:42:34;;;;;;;11.27;10.98;;;26.80;99.90;;;;;;4948536;29;20239;-81
2023/07/12 09:45:13;;;;;;;11.65;11.27;;;26.90;99.90;;;;;;4947276;28;20250;-82
2023/07/12 10:03:35;;;;;;;10.98;10.68;;;27.40;99.90;;;;;;4885388;29;20264;-83
2023/07/12 10:06:37;;;;;;;11.10;10.80;;;27.60;99.90;;;;;;4889731;29;20237;-81
2023/07/12 10:12:12;;;;;;;11.30;11.00;;;27.90;99.90;;;;;;4946419;28;20241;-80
2023/07/12 10:15:00;;;;;;;11.27;10.98;;;28.40;99.90;;;;;;4945398;29;20231;-79
2023/07/12 10:17:49;;;;;;;11.20;10.90;;;28.70;99.90;;;;;;4946222;29;20274;-80
2023/07/12 10:24:00;;;;;;;11.10;10.80;;;28.40;99.90;;;;;;4919225;28;20223;-81
2023/07/12 10:26:52;;;;;;;11.50;11.20;;;28.40;99.90;;;;;;4931489;29;20326;-78
2023/07/12 10:29:35;;;;;;;11.07;10.77;;;28.20;99.90;;;;;;4944100;28;20234;-79
2023/07/12 10:32:34;;;;;;;11.05;10.75;;;28.20;99.90;;;;;;4943368;29;20242;-81
2023/07/12 10:35:49;;;;;;;11.27;10.98;;;28.40;99.90;;;;;;4943722;28;20290;-79
2023/07/12 10:38:49;;;;;;;11.45;11.15;;;28.50;99.90;;;;;;4933768;28;20240;-78
2023/07/12 10:41:23;;;;;;;10.93;10.63;;;28.40;99.90;;;;;;4943590;29;20321;-79
2023/07/12 10:44:01;;;;;;;11.00;10.70;;;28.80;99.90;;;;;;4942515;29;20235;-80
2023/07/12 10:46:35;;;;;;;10.95;10.65;;;29.20;99.90;;;;;;4944211;29;20238;-81
2023/07/12 10:49:15;;;;;;;11.25;10.95;;;29.70;99.90;;;;;;4944744;29;20274;-80
2023/07/12 10:51:46;;;;;;;10.90;10.60;;;29.60;99.90;;;;;;4944656;29;20238;-80
2023/07/12 10:54:51;;;;;;;11.50;11.10;;;29.20;99.90;;;;;;4945406;29;20239;-80
2023/07/12 10:57:30;;;;;;;11.30;11.00;;;29.20;99.90;;;;;;4944299;29;20236;-79
2023/07/12 11:00:05;;;;;;;11.20;10.90;;;29.30;99.90;;;;;;4944557;29;20227;-79
2023/07/12 11:02:44;;;;;;;11.20;10.90;;;29.20;99.90;;;;;;4947029;29;20230;-79
2023/07/12 11:05:47;;;;;;;11.35;11.05;;;29.20;99.90;;;;;;4946513;29;20258;-80
2023/07/12 11:08:41;;;;;;;11.45;11.15;;;28.90;99.90;;;;;;4949547;29;20234;-79
2023/07/12 11:11:50;;;;;;;11.27;10.98;;;28.50;99.90;;;;;;4944611;29;20230;-79
2023/07/12 11:14:28;;;;;;;11.50;11.20;;;28.40;99.90;;;;;;4931010;29;20238;-81
2023/07/12 11:17:20;;;;;;;10.98;10.68;;;28.40;99.90;;;;;;4945130;29;20238;-80
2023/07/12 11:20:08;;;;;;;10.90;10.60;;;28.40;99.90;;;;;;4945361;29;20234;-79
2023/07/12 11:23:28;;;;;;;10.65;10.35;;;28.50;99.90;;;;;;4944669;29;20330;-80
2023/07/12 11:26:03;;;;;;;10.60;10.30;;;28.70;99.90;;;;;;4885202;29;20248;-79
2023/07/12 11:28:42;;;;;;;11.00;10.70;;;28.50;99.90;;;;;;4943462;29;20249;-80
2023/07/12 11:31:29;;;;;;;10.90;10.60;;;28.40;99.90;;;;;;4944632;29;20223;-79
2023/07/12 11:34:06;;;;;;;11.10;10.80;;;28.60;99.90;;;;;;4938583;28;20235;-80
2023/07/12 11:36:36;;;;;;;10.50;10.20;;;29.00;99.90;;;;;;4943712;29;20238;-78
2023/07/12 11:39:15;;;;;;;10.40;10.10;;;29.00;99.90;;;;;;4943553;28;20234;-82
2023/07/12 11:41:55;;;;;;;10.40;10.10;;;29.10;99.90;;;;;;4936887;29;20230;-79
2023/07/12 11:44:25;;;;;;;10.30;10.00;;;29.00;99.90;;;;;;4949854;29;20226;-78
2023/07/12 11:46:56;;;;;;;10.30;10.00;;;28.80;99.90;;;;;;4947484;29;20231;-79
2023/07/12 11:49:31;;;;;;;10.68;10.38;;;28.50;99.90;;;;;;4950679;28;20286;-79
2023/07/12 11:52:15;;;;;;;10.40;10.10;;;28.60;99.90;;;;;;4949401;29;20248;-78
2023/07/12 11:54:45;;;;;;;11.10;10.80;;;29.00;99.90;;;;;;4948522;28;20219;-79
2023/07/12 11:57:15;;;;;;;10.98;10.68;;;29.70;99.90;;;;;;4947841;28;20242;-78
2023/07/12 11:59:50;;;;;;;11.02;10.73;;;29.90;99.90;;;;;;4946688;28;20317;-79
2023/07/12 12:02:21;;;;;;;11.20;10.90;;;30.20;99.90;;;;;;4947094;29;20262;-79
2023/07/12 12:04:56;;;;;;;11.30;11.00;;;30.50;99.90;;;;;;4947464;29;20234;-80
2023/07/12 12:07:36;;;;;;;11.10;10.80;;;30.80;99.90;;;;;;4949353;28;20230;-79
2023/07/12 12:10:07;;;;;;;11.40;11.10;;;30.90;99.90;;;;;;4946605;29;20234;-79
2023/07/12 12:12:36;;;;;;;11.13;10.82;;;30.70;99.90;;;;;;4946656;28;20242;-79
2023/07/12 12:15:22;;;;;;;11.20;10.90;;;30.80;99.90;;;;;;4945663;28;20231;-79
2023/07/12 12:17:55;;;;;;;11.20;10.90;;;30.30;99.90;;;;;;4945958;28;20299;-79
2023/07/12 12:20:30;;;;;;;11.45;11.15;;;29.50;99.90;;;;;;4946862;29;20235;-79
2023/07/12 12:23:15;;;;;;;11.25;10.95;;;29.40;99.90;;;;;;4947674;29;20226;-79
2023/07/12 12:25:49;;;;;;;11.15;10.85;;;29.50;99.90;;;;;;4946727;29;20230;-82
2023/07/12 12:28:27;;;;;;;11.23;10.93;;;29.90;99.90;;;;;;4948767;29;20247;-82
2023/07/12 12:30:59;;;;;;;11.20;10.90;;;30.50;99.90;;;;;;4948153;28;20242;-81
2023/07/12 12:33:29;;;;;;;10.85;10.55;;;31.10;99.90;;;;;;4947267;28;20237;-80
2023/07/12 12:36:01;;;;;;;11.00;10.70;;;31.40;99.90;;;;;;4948033;28;20247;-80
2023/07/12 12:38:33;;;;;;;11.15;10.85;;;31.50;99.90;;;;;;4949073;28;20243;-80
2023/07/12 12:41:21;;;;;;;11.00;10.70;;;31.60;99.90;;;;;;4948210;28;20235;-78
2023/07/12 12:44:09;;;;;;;11.07;10.77;;;31.60;99.90;;;;;;4952382;28;20234;-80
2023/07/12 12:46:51;;;;;;;11.10;10.80;;;31.60;99.90;;;;;;4957825;28;20227;-81
2023/07/12 12:49:27;;;;;;;10.93;10.63;;;32.00;99.90;;;;;;4957077;28;20243;-79
2023/07/12 12:52:04;;;;;;;11.18;10.88;;;31.50;99.90;;;;;;4957696;28;20238;-80
2023/07/12 12:54:32;;;;;;;11.23;10.93;;;31.10;99.90;;;;;;4956199;29;20231;-79
2023/07/12 12:57:03;;;;;;;11.07;10.77;;;31.00;99.90;;;;;;4953037;28;20278;-77
2023/07/12 12:59:32;;;;;;;10.93;10.63;;;30.70;99.90;;;;;;4951193;28;20241;-79
2023/07/12 13:02:02;;;;;;;11.00;10.70;;;30.70;99.90;;;;;;4957589;29;20219;-80
2023/07/12 13:04:31;;;;;;;10.93;10.63;;;30.70;99.90;;;;;;4952016;28;20306;-80
2023/07/12 13:06:59;;;;;;;10.90;10.60;;;30.90;99.90;;;;;;4951170;28;20234;-81
2023/07/12 13:09:44;;;;;;;10.80;10.50;;;31.30;99.90;;;;;;4946398;28;20250;-82
2023/07/12 13:12:18;;;;;;;10.68;10.38;;;31.90;99.90;;;;;;4952955;28;20247;-81
2023/07/12 13:14:47;;;;;;;10.95;10.65;;;32.50;99.90;;;;;;4949933;29;20234;-81
2023/07/12 13:17:27;;;;;;;11.15;10.85;;;32.60;99.90;;;;;;4950420;28;20258;-82
2023/07/12 13:20:04;;;;;;;10.80;10.50;;;32.40;99.90;;;;;;4949556;29;20230;-83
2023/07/12 13:22:36;;;;;;;10.90;10.60;;;32.10;99.90;;;;;;4948687;29;20234;-82
2023/07/12 13:25:24;;;;;;;10.45;10.15;;;31.50;99.90;;;;;;4949425;28;20416;-79
2023/07/12 13:30:54;;;;;;;10.23;9.93;;;31.30;99.90;;;;;;4953297;28;20226;-80
2023/07/12 13:33:31;;;;;;;10.70;10.40;;;30.90;99.90;;;;;;4961234;28;20242;-78
2023/07/12 13:36:04;;;;;;;10.65;10.35;;;30.80;99.90;;;;;;4961540;28;20295;-79
2023/07/12 13:38:32;;;;;;;10.90;10.60;;;31.20;99.90;;;;;;4961763;28;20211;-79
2023/07/12 13:41:12;;;;;;;10.70;10.40;;;31.60;99.90;;;;;;4960794;28;20207;-81
2023/07/12 13:43:53;;;;;;;10.70;10.40;;;31.70;99.90;;;;;;4950295;29;20309;-82
2023/07/12 13:46:22;;;;;;;10.88;10.57;;;32.10;99.90;;;;;;4948900;28;20259;-82
2023/07/12 13:48:49;;;;;;;10.27;9.98;;;32.10;99.90;;;;;;4947129;29;20321;-81
2023/07/12 13:51:23;;;;;;;10.30;10.00;;;31.80;99.90;;;;;;4947387;29;20238;-80
2023/07/12 13:56:46;;;;;;;10.60;10.30;;;32.10;99.90;;;;;;4946050;28;20242;-80
2023/07/12 13:59:19;;;;;;;10.60;10.30;;;32.50;99.90;;;;;;4946810;29;20294;-80
2023/07/12 14:15:55;;;;;;;10.68;10.38;;;33.10;99.90;;;;;;4917281;28;20234;-82
2023/07/12 14:22:46;;;;;;;;;;;;;;;;;;;;;
2023/07/12 14:39:30;;;;;;;10.98;10.68;;;31.20;99.90;;;;;;4808745;29;20300;-82
2023/07/12 14:41:59;;;;;;;10.77;10.48;;;30.90;99.90;;;;;;4885843;29;20261;-80
2023/07/12 14:44:37;;;;;;;10.80;10.50;;;30.70;99.90;;;;;;4919877;29;20243;-80
2023/07/12 14:47:12;;;;;;;10.85;10.55;;;30.80;99.90;;;;;;4926820;29;20231;-82
2023/07/12 14:49:53;;;;;;;10.93;10.63;;;31.00;99.90;;;;;;4926541;29;20227;-85
2023/07/12 14:52:26;;;;;;;10.70;10.40;;;31.10;99.90;;;;;;4926557;29;20235;-80
2023/07/12 14:57:40;;;;;;;10.60;10.30;;;31.00;99.90;;;;;;4914965;29;20245;-80
2023/07/12 15:00:15;;;;;;;10.80;10.50;;;30.70;99.90;;;;;;4943170;28;20235;-81
2023/07/12 15:02:50;;;;;;;10.70;10.40;;;31.00;99.90;;;;;;4944794;29;20223;-80
2023/07/12 15:05:19;;;;;;;10.77;10.48;;;31.70;99.90;;;;;;4944476;29;20237;-79
2023/07/12 15:07:48;;;;;;;10.18;9.88;;;32.10;99.90;;;;;;4946536;28;20246;-79
2023/07/12 15:10:23;;;;;;;10.10;9.80;;;32.30;99.90;;;;;;4947023;28;20223;-81
2023/07/12 15:12:57;;;;;;;9.95;9.65;;;32.60;99.90;;;;;;4945946;29;20242;-82
2023/07/12 15:15:26;;;;;;;9.70;9.40;;;32.80;99.90;;;;;;4949204;29;20230;-80
2023/07/12 15:18:02;;;;;;;9.60;9.30;;;32.90;99.90;;;;;;4950104;29;20266;-81
2023/07/12 15:20:32;;;;;;;9.70;9.40;;;32.70;99.90;;;;;;4954812;29;20210;-81
2023/07/12 15:23:11;;;;;;;9.60;9.30;;;32.40;99.90;;;;;;4967117;28;20241;-81
2023/07/12 15:25:39;;;;;;;9.77;9.48;;;32.20;99.90;;;;;;4967795;28;20254;-82
2023/07/12 15:28:08;;;;;;;9.13;8.93;;;32.30;99.90;;;;;;4968163;28;20242;-82
2023/07/12 15:30:37;;;;;;;9.60;9.30;;;32.30;99.90;;;;;;4969623;28;20274;-82
2023/07/12 15:33:25;;;;;;;9.77;9.48;;;32.20;99.90;;;;;;4969116;28;20779;-82
2023/07/12 15:35:56;;;;;;;9.77;9.48;;;32.00;99.90;;;;;;4969245;28;20246;-81
2023/07/12 15:38:29;;;;;;;10.07;9.77;;;32.10;99.90;;;;;;4930969;29;20239;-82
2023/07/12 15:41:04;;;;;;;9.75;9.45;;;32.40;99.90;;;;;;4932631;29;20234;-84
2023/07/12 15:43:43;;;;;;;9.80;9.50;;;32.10;99.90;;;;;;4933927;29;20226;-85
2023/07/12 15:46:20;;;;;;;10.10;9.80;;;31.90;99.90;;;;;;4930569;29;20235;-83
2023/07/12 15:48:48;;;;;;;9.85;9.55;;;32.10;99.90;;;;;;4934929;29;20237;-80
2023/07/12 15:51:20;;;;;;;9.98;9.68;;;32.10;99.90;;;;;;4934854;29;20274;-80
2023/07/12 15:53:53;;;;;;;10.60;10.30;;;31.70;99.90;;;;;;4949487;29;20266;-82
2023/07/12 15:56:26;;;;;;;10.00;9.70;;;31.60;99.90;;;;;;4963559;28;20230;-82
2023/07/12 15:58:54;;;;;;;9.50;9.20;;;31.30;99.90;;;;;;4968514;28;20241;-82
2023/07/12 16:01:24;;;;;;;10.20;9.90;;;31.20;99.90;;;;;;4968750;28;20230;-82
2023/07/12 16:03:53;;;;;;;9.80;9.50;;;31.00;99.90;;;;;;4968451;28;20233;-82
2023/07/12 16:06:22;;;;;;;9.90;9.60;;;30.80;99.90;;;;;;4968649;28;20314;-82
2023/07/12 16:08:54;;;;;;;10.02;9.73;;;30.80;99.90;;;;;;4967261;28;20245;-82
2023/07/12 16:11:32;;;;;;;9.80;9.50;;;31.10;99.90;;;;;;4967941;28;20237;-82
2023/07/12 16:14:01;;;;;;;9.80;9.50;;;31.00;99.90;;;;;;4968555;28;20230;-82
2023/07/12 16:16:32;;;;;;;9.60;9.30;;;31.10;99.90;;;;;;4967966;28;20297;-82
2023/07/12 16:19:00;;;;;;;9.90;9.60;;;31.30;99.90;;;;;;4972268;28;20301;-82
2023/07/12 16:21:30;;;;;;;9.70;9.40;;;31.40;99.90;;;;;;4968920;28;20248;-82
2023/07/12 16:24:08;;;;;;;9.60;9.30;;;31.40;99.90;;;;;;4970406;28;20214;-83
2023/07/12 16:26:38;;;;;;;9.38;9.07;;;31.40;99.90;;;;;;4971535;28;20262;-83
2023/07/12 16:29:08;;;;;;;9.30;9.00;;;31.30;99.90;;;;;;4969162;28;20242;-83
2023/07/12 16:31:40;;;;;;;9.40;9.10;;;31.20;99.90;;;;;;4970083;28;20218;-83
2023/07/12 16:34:25;;;;;;;9.40;9.10;;;30.90;99.90;;;;;;4968107;28;20242;-83
2023/07/12 16:36:57;;;;;;;9.40;9.10;;;30.80;99.90;;;;;;4968612;28;20252;-80
2023/07/12 16:39:28;;;;;;;9.98;9.68;;;30.50;99.90;;;;;;4968119;28;20277;-82
2023/07/12 16:41:58;;;;;;;9.50;9.20;;;30.20;99.90;;;;;;4968546;28;20232;-82
2023/07/12 16:44:27;;;;;;;9.63;9.32;;;30.30;99.90;;;;;;4967008;28;20242;-83
2023/07/12 16:47:02;;;;;;;9.52;9.23;;;30.00;99.90;;;;;;4967193;28;20266;-83
2023/07/12 16:49:30;;;;;;;9.15;8.95;;;29.70;99.90;;;;;;4966975;28;20241;-82
2023/07/12 16:52:02;;;;;;;9.48;9.18;;;29.50;99.90;;;;;;4967906;28;20223;-82
2023/07/12 16:54:38;;;;;;;9.15;8.95;;;29.30;99.90;;;;;;4967886;28;20238;-83
2023/07/12 16:57:07;;;;;;;9.40;9.10;;;29.10;99.90;;;;;;4967928;28;20288;-83
2023/07/12 16:59:36;;;;;;;9.18;8.98;;;29.20;99.90;;;;;;4967654;28;20254;-82
2023/07/12 17:02:08;;;;;;;9.27;9.02;;;29.20;99.90;;;;;;4967904;28;20227;-83
2023/07/12 17:04:35;;;;;;;9.02;8.82;;;29.50;99.90;;;;;;4968245;28;20242;-82
2023/07/12 17:07:04;;;;;;;9.18;8.98;;;29.70;99.90;;;;;;4968256;28;20330;-82
2023/07/12 17:12:32;;;;;;;9.07;8.88;;;30.10;99.90;;;;;;4967073;28;20234;-82
2023/07/12 17:15:00;;;;;;;9.02;8.82;;;30.30;99.90;;;;;;4968809;28;20333;-84
2023/07/12 17:17:27;;;;;;;9.18;8.98;;;30.50;99.90;;;;;;4967058;28;20245;-82
2023/07/12 17:19:57;;;;;;;9.48;9.18;;;30.50;99.90;;;;;;4967876;28;20305;-82
2023/07/12 17:22:26;;;;;;;9.57;9.27;;;30.50;99.90;;;;;;4968524;28;20226;-82
2023/07/12 17:24:58;;;;;;;9.80;9.50;;;30.40;99.90;;;;;;4967400;28;20302;-82
2023/07/12 17:27:28;;;;;;;9.63;9.32;;;30.20;99.90;;;;;;4972689;28;20254;-82
2023/07/12 17:29:57;;;;;;;9.45;9.15;;;30.00;99.90;;;;;;4965779;28;20321;-82
2023/07/12 17:32:43;;;;;;;9.68;9.38;;;29.80;99.90;;;;;;4965913;28;20218;-82
2023/07/12 17:35:13;;;;;;;9.55;9.25;;;29.60;99.90;;;;;;4966175;28;20244;-83
2023/07/12 17:37:40;;;;;;;9.50;9.20;;;29.20;99.90;;;;;;4965941;28;20242;-82
2023/07/12 17:40:20;;;;;;;9.60;9.30;;;29.10;99.90;;;;;;4966702;28;20242;-82
2023/07/12 17:42:48;;;;;;;9.60;9.30;;;29.00;99.90;;;;;;4973017;28;20210;-83
2023/07/12 17:45:20;;;;;;;9.60;9.30;;;28.80;99.90;;;;;;4973343;28;20298;-83
2023/07/12 17:47:48;;;;;;;9.60;9.30;;;28.70;99.90;;;;;;4976059;28;20241;-83
2023/07/12 17:50:17;;;;;;;9.50;9.20;;;28.50;99.90;;;;;;4976165;28;20249;-81
2023/07/12 17:52:46;;;;;;;9.48;9.18;;;28.30;99.90;;;;;;4973556;28;20237;-82
2023/07/12 17:55:18;;;;;;;9.80;9.50;;;28.10;99.90;;;;;;4970748;28;20250;-83
2023/07/12 17:57:46;;;;;;;9.27;9.02;;;28.00;99.90;;;;;;4970442;28;20336;-83
2023/07/12 18:00:15;;;;;;;9.50;9.20;;;28.00;99.90;;;;;;4972401;28;20244;-83
2023/07/12 18:02:44;;;;;;;9.55;9.25;;;27.90;99.90;;;;;;4970661;28;20230;-83
2023/07/12 18:05:25;;;;;;;9.90;9.60;;;27.80;99.90;;;;;;4971067;28;20249;-83
2023/07/12 18:08:06;;;;;;;9.90;9.60;;;27.70;99.90;;;;;;4971103;28;20230;-83
2023/07/12 18:10:40;;;;;;;9.55;9.25;;;27.70;99.90;;;;;;4973209;28;20218;-83